This is the latest recevied weather packets stored in our database for station/object HB9DDE-10. If no packets are shown the sender has not sent any weather packets the latest 10 day(s).
| Time | Temp. | Humidity | Pressure | Rain* | Wind** | Luminosity | Snow |
|---|---|---|---|---|---|---|---|
| 1777913326 | 12.78° C | 90% | 1015 hPa | 2.03 mm | - | - | - |
| 1777913034 | 12.78° C | 90% | 1014.9 hPa | 3.05 mm | - | - | - |
| 1777912721 | 12.78° C | 90% | 1015 hPa | 4.06 mm | - | - | - |
| 1777912431 | 12.78° C | 90% | 1014.9 hPa | 5.08 mm | - | - | - |
| 1777912127 | 12.78° C | 90% | 1014.9 hPa | 7.11 mm | - | - | - |
| 1777911816 | 12.78° C | 90% | 1015 hPa | 7.87 mm | - | - | - |
| 1777911528 | 12.78° C | 90% | 1015 hPa | 8.89 mm | - | - | - |
| 1777911216 | 12.78° C | 90% | 1015 hPa | 8.89 mm | - | - | - |
| 1777910927 | 12.78° C | 90% | 1014.6 hPa | 8.89 mm | - | - | - |
| 1777910617 | 13.33° C | 90% | 1014.6 hPa | 8.89 mm | - | - | - |
| 1777910017 | 13.33° C | 89% | 1015 hPa | 8.89 mm | - | - | - |
| 1777909727 | 13.33° C | 88% | 1015.1 hPa | 7.87 mm | - | - | - |
| 1777909420 | 13.33° C | 89% | 1015.2 hPa | 7.11 mm | - | - | - |
| 1777909130 | 13.33° C | 88% | 1015.1 hPa | 7.11 mm | - | - | - |
| 1777908820 | 13.89° C | 88% | 1015.2 hPa | 6.1 mm | - | - | - |
| 1777908530 | 13.89° C | 86% | 1015.1 hPa | 4.06 mm | - | - | - |
| 1777908221 | 13.89° C | 85% | 1015 hPa | 3.05 mm | - | - | - |
| 1777907931 | 14.44° C | 84% | 1015 hPa | 2.03 mm | - | - | - |
| 1777907621 | 14.44° C | 82% | 1014.9 hPa | 2.03 mm | - | - | - |
| 1777907330 | 15° C | 81% | 1014.8 hPa | 2.03 mm | - | - | - |
| 1777907024 | 15° C | 77% | 1014.6 hPa | 1.02 mm | - | - | - |
| 1777906734 | 15.56° C | 74% | 1014.6 hPa | 1.02 mm | - | - | - |
| 1777906423 | 16.11° C | 71% | 1014.5 hPa | 0 mm | - | - | - |
| 1777906133 | 16.67° C | 68% | 1014.5 hPa | 0 mm | - | - | - |
| 1777905822 | 17.78° C | 64% | 1014.4 hPa | 0 mm | - | - | - |
* Rain latest hour (hover to see other rain measurements)
** Current wind speed in m/s (hover to see current wind gust speed)